sensor_id;sensor_type;location;lat;lon;timestamp;pressure;altitude;pressure_sealevel;temperature;humidity
64292;BME280;50628;51.008;13.658;2023-12-29T00:02:28;99419.56;;;7.69;100.00
64292;BME280;50628;51.008;13.658;2023-12-29T00:07:30;99414.81;;;7.63;100.00
64292;BME280;50628;51.008;13.658;2023-12-29T00:12:33;99411.09;;;7.43;100.00
64292;BME280;50628;51.008;13.658;2023-12-29T00:17:35;99396.63;;;7.17;100.00
64292;BME280;50628;51.008;13.658;2023-12-29T00:22:37;99385.28;;;7.06;100.00
64292;BME280;50628;51.008;13.658;2023-12-29T00:27:41;99384.28;;;6.96;100.00
64292;BME280;50628;51.008;13.658;2023-12-29T00:32:44;99372.94;;;7.10;100.00
64292;BME280;50628;51.008;13.658;2023-12-29T00:37:46;99366.72;;;7.48;100.00
64292;BME280;50628;51.008;13.658;2023-12-29T00:42:50;99363.13;;;7.62;100.00
64292;BME280;50628;51.008;13.658;2023-12-29T00:47:51;99356.31;;;7.72;100.00
64292;BME280;50628;51.008;13.658;2023-12-29T00:52:53;99351.16;;;7.83;100.00
64292;BME280;50628;51.008;13.658;2023-12-29T00:57:57;99352.34;;;7.90;100.00
64292;BME280;50628;51.008;13.658;2023-12-29T01:02:58;99349.19;;;8.09;100.00
64292;BME280;50628;51.008;13.658;2023-12-29T01:08:00;99351.16;;;8.06;100.00
64292;BME280;50628;51.008;13.658;2023-12-29T01:13:04;99349.53;;;8.16;100.00
64292;BME280;50628;51.008;13.658;2023-12-29T01:18:06;99354.50;;;8.19;100.00
64292;BME280;50628;51.008;13.658;2023-12-29T01:23:08;99354.84;;;8.14;100.00
64292;BME280;50628;51.008;13.658;2023-12-29T01:28:11;99347.75;;;8.16;100.00
64292;BME280;50628;51.008;13.658;2023-12-29T01:33:13;99344.00;;;8.32;100.00
64292;BME280;50628;51.008;13.658;2023-12-29T01:38:15;99344.69;;;8.34;100.00
64292;BME280;50628;51.008;13.658;2023-12-29T01:43:18;99351.41;;;8.25;100.00
64292;BME280;50628;51.008;13.658;2023-12-29T01:48:22;99352.59;;;8.32;100.00
64292;BME280;50628;51.008;13.658;2023-12-29T01:53:24;99346.34;;;8.46;100.00
64292;BME280;50628;51.008;13.658;2023-12-29T01:58:28;99320.66;;;8.43;100.00
64292;BME280;50628;51.008;13.658;2023-12-29T02:03:30;99322.31;;;8.21;100.00
64292;BME280;50628;51.008;13.658;2023-12-29T02:08:32;99325.38;;;8.27;100.00
64292;BME280;50628;51.008;13.658;2023-12-29T02:13:36;99329.41;;;8.19;100.00
64292;BME280;50628;51.008;13.658;2023-12-29T02:18:41;99323.28;;;8.09;100.00
64292;BME280;50628;51.008;13.658;2023-12-29T02:23:45;99308.03;;;8.16;100.00
64292;BME280;50628;51.008;13.658;2023-12-29T02:28:52;99305.34;;;8.17;100.00
64292;BME280;50628;51.008;13.658;2023-12-29T02:33:56;99307.09;;;8.06;100.00
64292;BME280;50628;51.008;13.658;2023-12-29T02:38:59;99285.31;;;7.86;100.00
64292;BME280;50628;51.008;13.658;2023-12-29T02:44:03;99288.50;;;8.00;100.00
64292;BME280;50628;51.008;13.658;2023-12-29T02:49:05;99269.06;;;7.95;100.00
64292;BME280;50628;51.008;13.658;2023-12-29T02:54:11;99254.38;;;7.84;100.00
64292;BME280;50628;51.008;13.658;2023-12-29T02:59:15;99252.56;;;7.96;100.00
64292;BME280;50628;51.008;13.658;2023-12-29T03:04:16;99239.16;;;8.02;100.00
64292;BME280;50628;51.008;13.658;2023-12-29T03:09:18;99257.41;;;8.00;100.00
64292;BME280;50628;51.008;13.658;2023-12-29T03:14:22;99255.03;;;8.20;100.00
64292;BME280;50628;51.008;13.658;2023-12-29T03:19:24;99249.84;;;8.20;100.00
64292;BME280;50628;51.008;13.658;2023-12-29T03:24:27;99245.47;;;8.20;100.00
64292;BME280;50628;51.008;13.658;2023-12-29T03:29:30;99241.84;;;8.12;100.00
64292;BME280;50628;51.008;13.658;2023-12-29T03:34:32;99235.22;;;8.30;100.00
64292;BME280;50628;51.008;13.658;2023-12-29T03:39:34;99230.75;;;8.21;100.00
64292;BME280;50628;51.008;13.658;2023-12-29T03:44:37;99230.28;;;8.16;100.00
64292;BME280;50628;51.008;13.658;2023-12-29T03:49:39;99219.03;;;8.38;100.00
64292;BME280;50628;51.008;13.658;2023-12-29T03:54:41;99233.19;;;8.45;100.00
64292;BME280;50628;51.008;13.658;2023-12-29T03:59:44;99251.09;;;8.59;100.00
64292;BME280;50628;51.008;13.658;2023-12-29T04:04:46;99238.06;;;8.71;100.00
64292;BME280;50628;51.008;13.658;2023-12-29T04:09:48;99220.09;;;8.79;100.00
64292;BME280;50628;51.008;13.658;2023-12-29T04:14:51;99221.06;;;8.78;100.00
64292;BME280;50628;51.008;13.658;2023-12-29T04:19:53;99208.06;;;8.78;100.00
64292;BME280;50628;51.008;13.658;2023-12-29T04:24:55;99199.34;;;8.79;100.00
64292;BME280;50628;51.008;13.658;2023-12-29T04:29:58;99198.84;;;8.85;100.00
64292;BME280;50628;51.008;13.658;2023-12-29T04:35:00;99197.00;;;8.97;100.00
64292;BME280;50628;51.008;13.658;2023-12-29T04:40:02;99200.03;;;9.02;100.00
64292;BME280;50628;51.008;13.658;2023-12-29T04:45:07;99210.13;;;8.95;100.00
64292;BME280;50628;51.008;13.658;2023-12-29T04:50:09;99221.31;;;8.96;100.00
64292;BME280;50628;51.008;13.658;2023-12-29T04:55:11;99208.44;;;8.94;100.00
64292;BME280;50628;51.008;13.658;2023-12-29T05:00:15;99202.81;;;8.89;100.00
64292;BME280;50628;51.008;13.658;2023-12-29T05:05:17;99203.91;;;8.86;100.00
64292;BME280;50628;51.008;13.658;2023-12-29T05:10:19;99195.28;;;8.86;100.00
64292;BME280;50628;51.008;13.658;2023-12-29T05:15:22;99190.09;;;8.86;100.00
64292;BME280;50628;51.008;13.658;2023-12-29T05:20:24;99182.47;;;8.84;100.00
64292;BME280;50628;51.008;13.658;2023-12-29T05:25:26;99187.25;;;8.89;100.00
64292;BME280;50628;51.008;13.658;2023-12-29T05:30:29;99210.16;;;8.84;100.00
64292;BME280;50628;51.008;13.658;2023-12-29T05:35:32;99196.47;;;8.82;100.00
64292;BME280;50628;51.008;13.658;2023-12-29T05:40:34;99196.38;;;8.83;100.00
64292;BME280;50628;51.008;13.658;2023-12-29T05:45:37;99179.53;;;8.78;100.00
64292;BME280;50628;51.008;13.658;2023-12-29T05:50:39;99182.56;;;8.83;100.00
64292;BME280;50628;51.008;13.658;2023-12-29T05:55:41;99196.03;;;8.77;100.00
64292;BME280;50628;51.008;13.658;2023-12-29T06:00:44;99178.00;;;8.75;100.00
64292;BME280;50628;51.008;13.658;2023-12-29T06:05:46;99165.47;;;8.80;100.00
64292;BME280;50628;51.008;13.658;2023-12-29T06:10:49;99172.13;;;8.73;100.00
64292;BME280;50628;51.008;13.658;2023-12-29T06:15:52;99181.09;;;8.69;100.00
64292;BME280;50628;51.008;13.658;2023-12-29T06:20:54;99177.66;;;8.80;100.00
64292;BME280;50628;51.008;13.658;2023-12-29T06:25:56;99156.28;;;8.76;100.00
64292;BME280;50628;51.008;13.658;2023-12-29T06:30:59;99167.44;;;8.88;100.00
64292;BME280;50628;51.008;13.658;2023-12-29T06:36:01;99162.19;;;8.99;100.00
64292;BME280;50628;51.008;13.658;2023-12-29T06:41:04;99148.38;;;8.99;100.00
64292;BME280;50628;51.008;13.658;2023-12-29T06:46:07;99152.38;;;9.03;100.00
64292;BME280;50628;51.008;13.658;2023-12-29T06:51:09;99143.34;;;8.97;100.00
64292;BME280;50628;51.008;13.658;2023-12-29T06:56:17;99125.41;;;8.94;100.00
64292;BME280;50628;51.008;13.658;2023-12-29T07:01:20;99147.19;;;9.03;100.00
64292;BME280;50628;51.008;13.658;2023-12-29T07:06:22;99127.63;;;8.99;100.00
64292;BME280;50628;51.008;13.658;2023-12-29T07:11:24;99096.41;;;8.89;100.00
64292;BME280;50628;51.008;13.658;2023-12-29T07:16:27;99112.00;;;8.89;100.00
64292;BME280;50628;51.008;13.658;2023-12-29T07:21:29;99112.63;;;8.81;100.00
64292;BME280;50628;51.008;13.658;2023-12-29T07:26:32;99119.91;;;8.87;100.00
64292;BME280;50628;51.008;13.658;2023-12-29T07:31:39;99136.03;;;8.91;100.00
64292;BME280;50628;51.008;13.658;2023-12-29T07:36:41;99133.44;;;8.91;100.00
64292;BME280;50628;51.008;13.658;2023-12-29T07:41:43;99153.94;;;8.94;100.00
64292;BME280;50628;51.008;13.658;2023-12-29T07:46:46;99171.31;;;8.94;100.00
64292;BME280;50628;51.008;13.658;2023-12-29T07:51:48;99169.53;;;8.94;100.00
64292;BME280;50628;51.008;13.658;2023-12-29T07:56:50;99180.34;;;8.99;100.00
64292;BME280;50628;51.008;13.658;2023-12-29T08:01:53;99191.16;;;9.04;100.00
64292;BME280;50628;51.008;13.658;2023-12-29T08:06:55;99206.94;;;9.13;100.00
64292;BME280;50628;51.008;13.658;2023-12-29T08:11:57;99203.88;;;9.28;100.00
64292;BME280;50628;51.008;13.658;2023-12-29T08:17:00;99217.50;;;9.21;100.00
64292;BME280;50628;51.008;13.658;2023-12-29T08:22:02;99221.94;;;9.30;100.00
64292;BME280;50628;51.008;13.658;2023-12-29T08:27:04;99216.88;;;9.28;100.00
64292;BME280;50628;51.008;13.658;2023-12-29T08:32:07;99218.44;;;9.41;100.00
64292;BME280;50628;51.008;13.658;2023-12-29T08:37:09;99233.50;;;9.47;100.00
64292;BME280;50628;51.008;13.658;2023-12-29T08:42:11;99229.97;;;9.48;100.00
64292;BME280;50628;51.008;13.658;2023-12-29T08:47:14;99252.28;;;9.50;100.00
64292;BME280;50628;51.008;13.658;2023-12-29T08:52:16;99233.00;;;9.53;100.00
64292;BME280;50628;51.008;13.658;2023-12-29T08:57:18;99215.09;;;9.50;100.00
64292;BME280;50628;51.008;13.658;2023-12-29T09:02:21;99227.97;;;9.61;100.00
64292;BME280;50628;51.008;13.658;2023-12-29T09:07:23;99213.47;;;9.59;100.00
64292;BME280;50628;51.008;13.658;2023-12-29T09:12:25;99211.31;;;9.64;100.00
64292;BME280;50628;51.008;13.658;2023-12-29T09:17:28;99208.81;;;9.62;100.00
64292;BME280;50628;51.008;13.658;2023-12-29T09:22:30;99216.50;;;9.64;100.00
64292;BME280;50628;51.008;13.658;2023-12-29T09:27:32;99213.25;;;9.71;100.00
64292;BME280;50628;51.008;13.658;2023-12-29T09:32:35;99203.66;;;9.72;100.00
64292;BME280;50628;51.008;13.658;2023-12-29T09:37:37;99199.88;;;9.76;100.00
64292;BME280;50628;51.008;13.658;2023-12-29T09:42:40;99205.38;;;9.92;100.00
64292;BME280;50628;51.008;13.658;2023-12-29T09:47:46;99201.03;;;9.93;100.00
64292;BME280;50628;51.008;13.658;2023-12-29T09:52:49;99201.28;;;10.00;100.00
64292;BME280;50628;51.008;13.658;2023-12-29T09:57:51;99205.97;;;10.06;100.00
64292;BME280;50628;51.008;13.658;2023-12-29T10:02:55;99212.03;;;10.16;100.00
64292;BME280;50628;51.008;13.658;2023-12-29T10:08:00;99207.75;;;10.15;100.00
64292;BME280;50628;51.008;13.658;2023-12-29T10:13:04;99218.56;;;10.20;100.00
64292;BME280;50628;51.008;13.658;2023-12-29T10:18:14;99220.13;;;10.32;100.00
64292;BME280;50628;51.008;13.658;2023-12-29T10:23:23;99225.47;;;10.40;100.00
64292;BME280;50628;51.008;13.658;2023-12-29T10:28:28;99229.44;;;10.35;100.00
64292;BME280;50628;51.008;13.658;2023-12-29T10:33:31;99224.81;;;10.38;100.00
64292;BME280;50628;51.008;13.658;2023-12-29T10:38:34;99219.31;;;10.32;100.00
64292;BME280;50628;51.008;13.658;2023-12-29T10:43:36;99219.00;;;10.25;100.00
64292;BME280;50628;51.008;13.658;2023-12-29T10:48:39;99255.19;;;10.28;100.00
64292;BME280;50628;51.008;13.658;2023-12-29T10:53:41;99228.72;;;10.23;100.00
64292;BME280;50628;51.008;13.658;2023-12-29T10:58:43;99232.34;;;10.42;100.00
64292;BME280;50628;51.008;13.658;2023-12-29T11:03:57;99223.59;;;10.52;100.00
64292;BME280;50628;51.008;13.658;2023-12-29T11:08:59;99212.06;;;10.45;100.00
64292;BME280;50628;51.008;13.658;2023-12-29T11:14:01;99201.41;;;10.48;100.00
64292;BME280;50628;51.008;13.658;2023-12-29T11:19:07;99196.59;;;10.63;100.00
64292;BME280;50628;51.008;13.658;2023-12-29T11:24:11;99207.41;;;10.68;100.00
64292;BME280;50628;51.008;13.658;2023-12-29T11:29:13;99199.75;;;10.67;100.00
64292;BME280;50628;51.008;13.658;2023-12-29T11:34:22;99203.88;;;10.89;100.00
64292;BME280;50628;51.008;13.658;2023-12-29T11:39:30;99202.63;;;10.93;100.00
64292;BME280;50628;51.008;13.658;2023-12-29T11:44:39;99201.38;;;11.07;100.00
64292;BME280;50628;51.008;13.658;2023-12-29T11:50:01;99197.41;;;11.02;100.00
64292;BME280;50628;51.008;13.658;2023-12-29T11:55:10;99179.75;;;10.96;100.00
64292;BME280;50628;51.008;13.658;2023-12-29T12:00:12;99190.16;;;10.87;100.00
64292;BME280;50628;51.008;13.658;2023-12-29T12:05:46;99191.97;;;10.76;100.00
64292;BME280;50628;51.008;13.658;2023-12-29T12:10:49;99197.69;;;10.80;100.00
64292;BME280;50628;51.008;13.658;2023-12-29T12:15:50;99176.47;;;10.85;100.00
64292;BME280;50628;51.008;13.658;2023-12-29T12:20:54;99175.50;;;10.76;100.00
64292;BME280;50628;51.008;13.658;2023-12-29T12:25:57;99162.06;;;10.71;100.00
64292;BME280;50628;51.008;13.658;2023-12-29T12:31:09;99159.47;;;10.71;100.00
64292;BME280;50628;51.008;13.658;2023-12-29T12:36:15;99155.78;;;10.73;100.00
64292;BME280;50628;51.008;13.658;2023-12-29T12:41:17;99140.72;;;10.77;100.00
64292;BME280;50628;51.008;13.658;2023-12-29T12:46:22;99150.72;;;10.81;100.00
64292;BME280;50628;51.008;13.658;2023-12-29T12:51:26;99156.84;;;10.90;100.00
64292;BME280;50628;51.008;13.658;2023-12-29T12:56:28;99168.38;;;10.88;100.00
64292;BME280;50628;51.008;13.658;2023-12-29T13:01:36;99169.88;;;10.90;100.00
64292;BME280;50628;51.008;13.658;2023-12-29T13:06:41;99170.72;;;10.81;100.00
64292;BME280;50628;51.008;13.658;2023-12-29T13:11:44;99167.28;;;10.80;100.00
64292;BME280;50628;51.008;13.658;2023-12-29T13:16:47;99158.53;;;10.72;100.00
64292;BME280;50628;51.008;13.658;2023-12-29T13:21:51;99153.44;;;10.70;100.00
64292;BME280;50628;51.008;13.658;2023-12-29T13:26:58;99127.03;;;10.65;100.00
64292;BME280;50628;51.008;13.658;2023-12-29T13:32:02;99135.00;;;10.64;100.00
64292;BME280;50628;51.008;13.658;2023-12-29T13:37:15;99137.44;;;10.65;100.00
64292;BME280;50628;51.008;13.658;2023-12-29T13:42:18;99122.63;;;10.66;100.00
64292;BME280;50628;51.008;13.658;2023-12-29T13:47:21;99121.00;;;10.65;100.00
64292;BME280;50628;51.008;13.658;2023-12-29T13:52:25;99113.47;;;10.61;100.00
64292;BME280;50628;51.008;13.658;2023-12-29T13:57:30;99108.13;;;10.63;100.00
64292;BME280;50628;51.008;13.658;2023-12-29T14:02:35;99117.28;;;10.67;100.00
64292;BME280;50628;51.008;13.658;2023-12-29T14:07:45;99124.53;;;10.73;100.00
64292;BME280;50628;51.008;13.658;2023-12-29T14:12:48;99121.00;;;10.74;100.00
64292;BME280;50628;51.008;13.658;2023-12-29T14:17:49;99122.91;;;10.72;100.00
64292;BME280;50628;51.008;13.658;2023-12-29T14:23:01;99122.50;;;10.77;100.00
64292;BME280;50628;51.008;13.658;2023-12-29T14:28:03;99128.09;;;10.82;100.00
64292;BME280;50628;51.008;13.658;2023-12-29T14:33:06;99119.47;;;10.81;100.00
64292;BME280;50628;51.008;13.658;2023-12-29T14:38:10;99126.88;;;10.86;100.00
64292;BME280;50628;51.008;13.658;2023-12-29T14:43:17;99127.97;;;10.83;100.00
64292;BME280;50628;51.008;13.658;2023-12-29T14:48:19;99113.16;;;10.84;100.00
64292;BME280;50628;51.008;13.658;2023-12-29T14:53:26;99108.78;;;10.85;100.00
64292;BME280;50628;51.008;13.658;2023-12-29T14:58:28;99106.44;;;10.81;100.00
64292;BME280;50628;51.008;13.658;2023-12-29T15:03:30;99087.97;;;10.75;100.00
64292;BME280;50628;51.008;13.658;2023-12-29T15:08:34;99105.75;;;10.89;100.00
64292;BME280;50628;51.008;13.658;2023-12-29T15:13:37;99086.31;;;10.83;100.00
64292;BME280;50628;51.008;13.658;2023-12-29T15:18:38;99076.03;;;10.82;100.00
64292;BME280;50628;51.008;13.658;2023-12-29T15:23:42;99083.03;;;10.81;100.00
64292;BME280;50628;51.008;13.658;2023-12-29T15:28:44;99090.44;;;10.76;100.00
64292;BME280;50628;51.008;13.658;2023-12-29T15:33:45;99075.91;;;10.83;100.00
64292;BME280;50628;51.008;13.658;2023-12-29T15:38:49;99084.94;;;10.79;100.00
64292;BME280;50628;51.008;13.658;2023-12-29T15:43:51;99080.34;;;10.64;100.00
64292;BME280;50628;51.008;13.658;2023-12-29T15:48:53;99080.47;;;10.62;100.00
64292;BME280;50628;51.008;13.658;2023-12-29T15:53:59;99079.75;;;10.70;100.00
64292;BME280;50628;51.008;13.658;2023-12-29T15:59:01;99093.47;;;10.72;100.00
64292;BME280;50628;51.008;13.658;2023-12-29T16:04:03;99088.38;;;10.70;100.00
64292;BME280;50628;51.008;13.658;2023-12-29T16:09:06;99077.47;;;10.57;100.00
64292;BME280;50628;51.008;13.658;2023-12-29T16:14:08;99070.63;;;10.56;100.00
64292;BME280;50628;51.008;13.658;2023-12-29T16:19:10;99057.88;;;10.53;100.00
64292;BME280;50628;51.008;13.658;2023-12-29T16:24:13;99083.38;;;10.49;100.00
64292;BME280;50628;51.008;13.658;2023-12-29T16:29:16;99086.66;;;10.42;100.00
64292;BME280;50628;51.008;13.658;2023-12-29T16:34:18;99096.78;;;10.45;100.00
64292;BME280;50628;51.008;13.658;2023-12-29T16:39:21;99102.69;;;10.37;100.00
64292;BME280;50628;51.008;13.658;2023-12-29T16:44:23;99095.41;;;10.50;100.00
64292;BME280;50628;51.008;13.658;2023-12-29T16:49:25;99110.19;;;10.40;100.00
64292;BME280;50628;51.008;13.658;2023-12-29T16:54:28;99101.28;;;10.43;100.00
64292;BME280;50628;51.008;13.658;2023-12-29T16:59:33;99099.25;;;10.36;100.00
64292;BME280;50628;51.008;13.658;2023-12-29T17:04:36;99085.00;;;10.21;100.00
64292;BME280;50628;51.008;13.658;2023-12-29T17:09:40;99076.63;;;10.17;100.00
64292;BME280;50628;51.008;13.658;2023-12-29T17:14:42;99076.38;;;10.21;100.00
64292;BME280;50628;51.008;13.658;2023-12-29T17:19:44;99068.03;;;10.27;100.00
64292;BME280;50628;51.008;13.658;2023-12-29T17:24:47;99094.44;;;10.22;100.00
64292;BME280;50628;51.008;13.658;2023-12-29T17:29:49;99078.13;;;10.20;100.00
64292;BME280;50628;51.008;13.658;2023-12-29T17:34:52;99075.41;;;10.12;100.00
64292;BME280;50628;51.008;13.658;2023-12-29T17:39:56;99064.31;;;10.19;100.00
64292;BME280;50628;51.008;13.658;2023-12-29T17:44:58;99078.69;;;10.14;100.00
64292;BME280;50628;51.008;13.658;2023-12-29T17:50:00;99073.09;;;10.18;100.00
64292;BME280;50628;51.008;13.658;2023-12-29T17:55:04;99080.59;;;10.02;100.00
64292;BME280;50628;51.008;13.658;2023-12-29T18:00:07;99083.09;;;10.04;100.00
64292;BME280;50628;51.008;13.658;2023-12-29T18:05:09;99088.81;;;9.97;100.00
64292;BME280;50628;51.008;13.658;2023-12-29T18:10:13;99088.69;;;9.99;100.00
64292;BME280;50628;51.008;13.658;2023-12-29T18:15:15;99088.56;;;10.01;100.00
64292;BME280;50628;51.008;13.658;2023-12-29T18:20:16;99071.44;;;10.17;100.00
64292;BME280;50628;51.008;13.658;2023-12-29T18:25:21;99082.13;;;10.14;100.00
64292;BME280;50628;51.008;13.658;2023-12-29T18:30:23;99093.75;;;10.20;100.00
64292;BME280;50628;51.008;13.658;2023-12-29T18:35:25;99094.03;;;10.27;100.00
64292;BME280;50628;51.008;13.658;2023-12-29T18:40:28;99083.09;;;10.33;100.00
64292;BME280;50628;51.008;13.658;2023-12-29T18:45:31;99092.16;;;10.29;100.00
64292;BME280;50628;51.008;13.658;2023-12-29T18:50:33;99078.16;;;10.39;100.00
64292;BME280;50628;51.008;13.658;2023-12-29T18:55:36;99085.53;;;10.25;100.00
64292;BME280;50628;51.008;13.658;2023-12-29T19:00:38;99091.56;;;10.45;100.00
64292;BME280;50628;51.008;13.658;2023-12-29T19:05:40;99090.06;;;10.42;100.00
64292;BME280;50628;51.008;13.658;2023-12-29T19:10:43;99087.34;;;10.53;100.00
64292;BME280;50628;51.008;13.658;2023-12-29T19:15:47;99084.75;;;10.53;100.00
64292;BME280;50628;51.008;13.658;2023-12-29T19:20:49;99079.66;;;10.42;100.00
64292;BME280;50628;51.008;13.658;2023-12-29T19:25:52;99064.88;;;10.43;100.00
64292;BME280;50628;51.008;13.658;2023-12-29T19:30:54;99071.75;;;10.34;100.00
64292;BME280;50628;51.008;13.658;2023-12-29T19:35:55;99066.22;;;10.27;100.00
64292;BME280;50628;51.008;13.658;2023-12-29T19:41:01;99053.09;;;10.19;100.00
64292;BME280;50628;51.008;13.658;2023-12-29T19:46:03;99057.78;;;10.15;100.00
64292;BME280;50628;51.008;13.658;2023-12-29T19:51:05;99069.25;;;10.13;100.00
64292;BME280;50628;51.008;13.658;2023-12-29T19:56:09;99063.50;;;10.09;100.00
64292;BME280;50628;51.008;13.658;2023-12-29T20:01:11;99069.50;;;10.00;100.00
64292;BME280;50628;51.008;13.658;2023-12-29T20:06:16;99057.91;;;10.14;100.00
64292;BME280;50628;51.008;13.658;2023-12-29T20:11:19;99063.50;;;10.19;100.00
64292;BME280;50628;51.008;13.658;2023-12-29T20:16:22;99064.34;;;10.29;100.00
64292;BME280;50628;51.008;13.658;2023-12-29T20:21:25;99069.38;;;10.40;100.00
64292;BME280;50628;51.008;13.658;2023-12-29T20:26:28;99058.03;;;10.51;100.00
64292;BME280;50628;51.008;13.658;2023-12-29T20:31:31;99080.59;;;10.60;100.00
64292;BME280;50628;51.008;13.658;2023-12-29T20:36:32;99068.28;;;10.53;100.00
64292;BME280;50628;51.008;13.658;2023-12-29T20:41:36;99058.44;;;10.56;100.00
64292;BME280;50628;51.008;13.658;2023-12-29T20:46:37;99058.44;;;10.56;100.00
64292;BME280;50628;51.008;13.658;2023-12-29T20:51:41;99060.63;;;10.61;100.00
64292;BME280;50628;51.008;13.658;2023-12-29T20:56:44;99062.13;;;10.64;100.00
64292;BME280;50628;51.008;13.658;2023-12-29T21:01:46;99053.75;;;10.60;100.00
64292;BME280;50628;51.008;13.658;2023-12-29T21:06:48;99048.41;;;10.61;100.00
64292;BME280;50628;51.008;13.658;2023-12-29T21:11:51;99030.34;;;10.60;100.00
64292;BME280;50628;51.008;13.658;2023-12-29T21:16:53;99035.44;;;10.52;100.00
64292;BME280;50628;51.008;13.658;2023-12-29T21:21:55;99037.63;;;10.47;100.00
64292;BME280;50628;51.008;13.658;2023-12-29T21:26:58;99040.13;;;10.38;100.00
64292;BME280;50628;51.008;13.658;2023-12-29T21:32:00;99047.06;;;10.48;100.00
64292;BME280;50628;51.008;13.658;2023-12-29T21:37:02;99040.75;;;10.50;100.00
64292;BME280;50628;51.008;13.658;2023-12-29T21:42:06;99043.50;;;10.58;100.00
64292;BME280;50628;51.008;13.658;2023-12-29T21:47:08;99039.00;;;10.51;100.00
64292;BME280;50628;51.008;13.658;2023-12-29T21:52:09;99027.63;;;10.52;100.00
64292;BME280;50628;51.008;13.658;2023-12-29T21:57:13;99006.69;;;10.44;100.00
64292;BME280;50628;51.008;13.658;2023-12-29T22:02:15;99027.38;;;10.35;100.00
64292;BME280;50628;51.008;13.658;2023-12-29T22:07:17;99025.31;;;10.49;100.00
64292;BME280;50628;51.008;13.658;2023-12-29T22:12:20;99023.53;;;10.39;100.00
64292;BME280;50628;51.008;13.658;2023-12-29T22:17:22;99025.44;;;10.37;100.00
64292;BME280;50628;51.008;13.658;2023-12-29T22:22:23;99023.25;;;10.33;100.00
64292;BME280;50628;51.008;13.658;2023-12-29T22:27:27;99018.47;;;10.38;100.00
64292;BME280;50628;51.008;13.658;2023-12-29T22:32:28;99022.72;;;10.39;100.00
64292;BME280;50628;51.008;13.658;2023-12-29T22:37:30;99030.38;;;10.40;100.00
64292;BME280;50628;51.008;13.658;2023-12-29T22:42:34;98993.03;;;10.32;100.00
64292;BME280;50628;51.008;13.658;2023-12-29T22:47:36;98986.69;;;10.25;100.00
64292;BME280;50628;51.008;13.658;2023-12-29T22:52:39;98992.47;;;10.18;100.00
64292;BME280;50628;51.008;13.658;2023-12-29T22:57:42;98996.19;;;10.06;100.00
64292;BME280;50628;51.008;13.658;2023-12-29T23:02:44;98996.72;;;10.10;100.00
64292;BME280;50628;51.008;13.658;2023-12-29T23:07:46;98987.13;;;10.10;100.00
64292;BME280;50628;51.008;13.658;2023-12-29T23:12:49;98992.34;;;10.10;100.00
64292;BME280;50628;51.008;13.658;2023-12-29T23:17:51;98977.69;;;10.09;100.00
64292;BME280;50628;51.008;13.658;2023-12-29T23:22:53;98997.53;;;10.10;100.00
64292;BME280;50628;51.008;13.658;2023-12-29T23:27:56;98999.47;;;10.18;100.00
64292;BME280;50628;51.008;13.658;2023-12-29T23:32:58;99000.81;;;10.22;100.00
64292;BME280;50628;51.008;13.658;2023-12-29T23:37:59;99011.34;;;10.30;100.00
64292;BME280;50628;51.008;13.658;2023-12-29T23:43:03;98999.19;;;10.31;100.00
64292;BME280;50628;51.008;13.658;2023-12-29T23:48:05;98984.94;;;10.35;100.00
64292;BME280;50628;51.008;13.658;2023-12-29T23:53:07;98967.03;;;10.12;100.00
64292;BME280;50628;51.008;13.658;2023-12-29T23:58:10;98963.72;;;10.10;100.00
